createdAt,value
2022-08-22T00:02:31.021Z,99.90
2022-08-22T00:02:41.976Z,93.70
2022-08-22T00:03:04.188Z,99.90
2022-08-22T00:03:09.131Z,99.90
2022-08-22T00:03:11.173Z,96.30
2022-08-22T00:05:26.569Z,99.90
2022-08-22T00:08:00.805Z,99.90
2022-08-22T00:10:47.434Z,99.90
2022-08-22T00:13:22.666Z,99.90
2022-08-22T00:16:05.396Z,99.90
2022-08-22T00:18:42.951Z,99.90
2022-08-22T00:21:15.004Z,99.90
2022-08-22T00:23:50.575Z,99.90
2022-08-22T00:26:35.971Z,99.90
2022-08-22T00:29:07.495Z,99.90
2022-08-22T00:31:39.921Z,99.90
2022-08-22T00:34:09.454Z,99.90
2022-08-22T00:36:43.422Z,99.90
2022-08-22T00:39:17.599Z,99.90
2022-08-22T00:42:15.026Z,99.90
2022-08-22T00:45:17.005Z,99.90
2022-08-22T00:47:51.381Z,99.90
2022-08-22T00:50:40.463Z,99.90
2022-08-22T00:53:54.529Z,99.90
2022-08-22T00:56:41.368Z,99.90
2022-08-22T00:59:29.299Z,99.90
2022-08-22T01:02:28.612Z,99.90
2022-08-22T01:05:21.859Z,99.90
2022-08-22T01:07:59.678Z,99.90
2022-08-22T01:10:43.379Z,99.90
2022-08-22T01:13:38.088Z,99.90
2022-08-22T01:16:38.526Z,99.90
2022-08-22T01:19:29.546Z,99.90
2022-08-22T01:22:24.393Z,99.90
2022-08-22T01:25:18.391Z,99.90
2022-08-22T01:28:05.038Z,99.90
2022-08-22T01:30:54.493Z,99.90
2022-08-22T01:34:03.209Z,99.90
2022-08-22T01:37:11.830Z,99.90
2022-08-22T01:40:02.658Z,99.90
2022-08-22T01:43:07.261Z,99.90
2022-08-22T01:45:55.490Z,99.90
2022-08-22T01:48:38.142Z,99.90
2022-08-22T01:51:29.428Z,99.90
2022-08-22T01:54:07.121Z,99.90
2022-08-22T01:56:39.870Z,99.90
2022-08-22T01:59:15.031Z,99.90
2022-08-22T02:01:51.605Z,99.90
2022-08-22T02:04:36.896Z,99.90
2022-08-22T02:07:14.703Z,99.90
2022-08-22T02:10:11.282Z,99.90
2022-08-22T02:12:41.334Z,99.90
2022-08-22T02:15:14.908Z,99.90
2022-08-22T02:17:50.968Z,99.90
2022-08-22T02:20:24.331Z,99.90
2022-08-22T02:23:15.942Z,99.90
2022-08-22T02:26:08.152Z,99.90
2022-08-22T02:28:58.100Z,99.90
2022-08-22T02:31:53.110Z,99.90
2022-08-22T02:34:38.164Z,99.90
2022-08-22T02:37:15.634Z,99.90
2022-08-22T02:40:10.329Z,99.90
2022-08-22T02:42:42.035Z,99.90
2022-08-22T02:45:38.948Z,99.90
2022-08-22T02:48:20.154Z,99.90
2022-08-22T02:51:10.021Z,99.90
2022-08-22T02:53:39.446Z,99.90
2022-08-22T02:56:18.756Z,99.90
2022-08-22T02:59:00.114Z,99.90
2022-08-22T03:01:29.863Z,99.90
2022-08-22T03:04:30.741Z,99.90
2022-08-22T03:07:06.375Z,99.90
2022-08-22T03:09:40.115Z,99.90
2022-08-22T03:12:19.306Z,99.90
2022-08-22T03:15:03.234Z,99.90
2022-08-22T03:17:40.414Z,99.90
2022-08-22T03:20:13.935Z,99.90
2022-08-22T03:22:43.745Z,99.90
2022-08-22T03:25:38.232Z,99.90
2022-08-22T03:28:18.359Z,99.90
2022-08-22T03:30:55.982Z,99.90
2022-08-22T03:33:25.970Z,99.90
2022-08-22T03:36:04.110Z,99.90
2022-08-22T03:38:33.814Z,99.90
2022-08-22T03:41:24.455Z,99.90
2022-08-22T03:44:15.901Z,99.90
2022-08-22T03:46:55.783Z,99.90
2022-08-22T03:49:58.937Z,99.90
2022-08-22T03:53:04.424Z,99.90
2022-08-22T03:55:52.656Z,99.90
2022-08-22T03:58:48.487Z,99.90
2022-08-22T04:01:53.545Z,99.90
2022-08-22T04:04:33.311Z,99.90
2022-08-22T04:07:31.582Z,99.90
2022-08-22T04:10:36.556Z,99.90
2022-08-22T04:13:28.230Z,99.90
2022-08-22T04:16:14.837Z,99.90
2022-08-22T04:18:56.399Z,99.90
2022-08-22T04:21:47.809Z,99.90
2022-08-22T04:24:30.182Z,99.90
2022-08-22T04:27:20.292Z,99.90
2022-08-22T04:30:06.927Z,99.90
2022-08-22T04:32:41.488Z,99.90
2022-08-22T04:35:16.270Z,99.90
2022-08-22T04:37:58.658Z,99.90
2022-08-22T04:40:38.990Z,99.90
2022-08-22T04:43:41.374Z,99.90
2022-08-22T04:46:20.011Z,99.90
2022-08-22T04:48:58.709Z,99.90
2022-08-22T04:51:33.486Z,99.90
2022-08-22T04:54:15.428Z,99.90
2022-08-22T04:56:54.734Z,99.90
2022-08-22T04:59:24.993Z,99.90
2022-08-22T05:01:59.750Z,99.90
2022-08-22T05:04:33.526Z,99.90
2022-08-22T05:07:15.498Z,99.90
2022-08-22T05:09:48.404Z,99.90
2022-08-22T05:12:20.220Z,99.90
2022-08-22T05:14:54.400Z,99.90
2022-08-22T05:17:27.583Z,99.90
2022-08-22T05:20:00.327Z,99.90
2022-08-22T05:22:37.927Z,99.90
2022-08-22T05:25:12.832Z,99.90
2022-08-22T05:27:44.614Z,99.90
2022-08-22T05:30:16.352Z,99.90
2022-08-22T05:32:48.862Z,99.90
2022-08-22T05:35:18.305Z,99.90
2022-08-22T05:37:48.859Z,99.90
2022-08-22T05:40:26.052Z,99.90
2022-08-22T05:42:54.781Z,99.90
2022-08-22T05:45:23.162Z,99.90
2022-08-22T05:47:57.332Z,99.90
2022-08-22T05:50:40.320Z,99.90
2022-08-22T05:53:29.986Z,99.90
2022-08-22T05:56:09.007Z,99.90
2022-08-22T05:58:42.714Z,99.90
2022-08-22T06:01:30.108Z,99.90
2022-08-22T06:04:17.083Z,99.00
2022-08-22T06:06:56.332Z,99.90
2022-08-22T06:10:06.990Z,99.90
2022-08-22T06:12:43.289Z,99.20
2022-08-22T06:15:21.076Z,99.00
2022-08-22T06:17:55.801Z,99.70
2022-08-22T06:20:47.696Z,99.30
2022-08-22T06:23:29.301Z,99.50
2022-08-22T06:26:00.142Z,99.40
2022-08-22T06:28:32.751Z,99.60
2022-08-22T06:31:06.278Z,97.60
2022-08-22T06:33:38.389Z,97.50
2022-08-22T06:36:30.510Z,97.70
2022-08-22T06:39:23.127Z,97.30
2022-08-22T06:42:04.583Z,94.70
2022-08-22T06:44:35.448Z,95.40
2022-08-22T06:47:07.618Z,94.80
2022-08-22T06:49:37.354Z,94.40
2022-08-22T06:52:12.200Z,93.60
2022-08-22T06:54:43.398Z,93.80
2022-08-22T06:57:42.275Z,93.80
2022-08-22T07:00:14.102Z,93.10
2022-08-22T07:02:44.783Z,91.20
2022-08-22T07:05:18.769Z,90.90
2022-08-22T07:07:45.690Z,92.10
2022-08-22T07:10:21.831Z,91.80
2022-08-22T07:12:54.921Z,91.10
2022-08-22T07:15:40.522Z,90.60
2022-08-22T07:18:16.841Z,91.40
2022-08-22T07:20:47.469Z,91.70
2022-08-22T07:23:31.567Z,90.10
2022-08-22T07:26:39.500Z,89.40
2022-08-22T07:29:14.118Z,90.50
2022-08-22T07:32:06.140Z,90.20
2022-08-22T07:35:03.057Z,90.20
2022-08-22T07:37:44.810Z,90.30
2022-08-22T07:40:11.564Z,90.70
2022-08-22T07:42:51.589Z,92.30
2022-08-22T07:45:31.917Z,90.50
2022-08-22T07:48:25.595Z,89.80
2022-08-22T07:51:07.828Z,88.60
2022-08-22T07:53:46.835Z,89.00
2022-08-22T07:56:44.939Z,88.40
2022-08-22T07:59:18.110Z,87.90
2022-08-22T08:01:51.210Z,89.20
2022-08-22T08:04:21.677Z,87.40
2022-08-22T08:06:54.946Z,88.00
2022-08-22T08:09:22.394Z,90.00
2022-08-22T08:11:53.148Z,88.20
2022-08-22T08:14:23.390Z,89.60
2022-08-22T08:17:13.284Z,89.40
2022-08-22T08:19:42.050Z,84.60
2022-08-22T08:22:16.910Z,87.00
2022-08-22T08:24:45.103Z,85.10
2022-08-22T08:27:38.889Z,82.90
2022-08-22T08:30:15.380Z,85.80
2022-08-22T08:32:46.078Z,80.20
2022-08-22T08:35:25.619Z,78.90
2022-08-22T08:37:58.701Z,78.60
2022-08-22T08:40:51.374Z,75.20
2022-08-22T08:43:59.119Z,76.30
2022-08-22T08:46:31.767Z,77.90
2022-08-22T08:49:06.530Z,81.20
2022-08-22T08:52:06.945Z,80.30
2022-08-22T08:55:10.533Z,81.80
2022-08-22T08:58:23.991Z,81.40
2022-08-22T09:01:32.518Z,78.80
2022-08-22T09:04:42.437Z,79.80
2022-08-22T09:07:53.451Z,79.20
2022-08-22T09:10:39.583Z,82.10
2022-08-22T09:13:37.610Z,83.50
2022-08-22T09:16:34.723Z,83.70
2022-08-22T09:19:23.611Z,82.60
2022-08-22T09:22:16.167Z,82.60
2022-08-22T09:25:30.801Z,82.70
2022-08-22T09:28:29.462Z,80.50
2022-08-22T09:31:16.966Z,79.90
2022-08-22T09:34:27.262Z,79.10
2022-08-22T09:37:23.825Z,79.80
2022-08-22T09:43:21.433Z,75.40
2022-08-22T09:46:01.998Z,77.70
2022-08-22T09:48:57.882Z,76.70
2022-08-22T09:51:55.140Z,77.80
2022-08-22T09:54:35.422Z,74.90
2022-08-22T09:57:14.023Z,74.60
2022-08-22T10:00:22.141Z,75.60
2022-08-22T10:03:09.037Z,73.80
2022-08-22T10:06:09.200Z,69.60
2022-08-22T10:09:06.209Z,70.20
2022-08-22T10:11:46.155Z,68.90
2022-08-22T10:14:26.178Z,70.40
2022-08-22T10:17:25.350Z,71.10
2022-08-22T10:20:25.182Z,70.10
2022-08-22T10:23:33.508Z,72.40
2022-08-22T10:26:26.461Z,72.90
2022-08-22T10:29:03.469Z,72.20
2022-08-22T10:31:58.874Z,69.30
2022-08-22T10:34:43.385Z,67.80
2022-08-22T10:37:36.745Z,70.30
2022-08-22T10:40:36.087Z,69.30
2022-08-22T10:43:15.009Z,69.50
2022-08-22T10:45:47.873Z,67.50
2022-08-22T10:48:40.475Z,68.00
2022-08-22T10:51:43.950Z,67.80
2022-08-22T10:54:27.126Z,67.40
2022-08-22T10:57:24.115Z,65.80
2022-08-22T11:00:14.166Z,65.60
2022-08-22T11:03:15.162Z,68.60
2022-08-22T11:06:00.179Z,64.90
2022-08-22T11:08:34.788Z,69.40
2022-08-22T11:11:07.515Z,66.70
2022-08-22T11:13:46.518Z,65.40
2022-08-22T11:16:26.085Z,63.30
2022-08-22T11:19:27.180Z,64.70
2022-08-22T11:22:34.023Z,62.20
2022-08-22T11:25:38.511Z,63.50
2022-08-22T11:28:38.736Z,65.70
2022-08-22T11:31:28.206Z,68.30
2022-08-22T11:34:01.657Z,68.00
2022-08-22T11:36:46.874Z,68.50
2022-08-22T11:39:34.663Z,69.70
2022-08-22T11:42:22.148Z,73.10
2022-08-22T11:44:57.254Z,72.40
2022-08-22T11:47:36.823Z,73.10
2022-08-22T11:50:29.711Z,73.90
2022-08-22T11:53:14.403Z,71.80
2022-08-22T11:56:14.223Z,72.20
2022-08-22T11:59:02.619Z,71.30
2022-08-22T12:01:55.724Z,73.40
2022-08-22T12:04:43.983Z,72.60
2022-08-22T12:07:22.266Z,69.00
2022-08-22T12:10:13.802Z,68.20
2022-08-22T12:13:01.171Z,70.00
2022-08-22T12:15:53.879Z,71.90
2022-08-22T12:18:29.918Z,73.60
2022-08-22T12:21:18.200Z,73.20
2022-08-22T12:24:19.297Z,73.90
2022-08-22T12:27:14.193Z,74.70
2022-08-22T12:29:55.925Z,73.50
2022-08-22T12:33:03.419Z,72.20
2022-08-22T12:35:44.518Z,72.80
2022-08-22T12:38:41.727Z,71.60
2022-08-22T12:41:35.040Z,71.20
2022-08-22T12:44:17.744Z,72.90
2022-08-22T12:47:09.832Z,72.40
2022-08-22T12:49:56.001Z,73.60
2022-08-22T12:53:02.692Z,73.60
2022-08-22T12:55:51.003Z,73.40
2022-08-22T12:58:35.462Z,73.90
2022-08-22T13:01:07.043Z,71.00
2022-08-22T13:03:42.171Z,72.10
2022-08-22T13:06:33.654Z,72.40
2022-08-22T13:09:01.629Z,72.50
2022-08-22T13:11:35.934Z,70.70
2022-08-22T13:14:03.750Z,69.60
2022-08-22T13:16:49.010Z,69.80
2022-08-22T13:19:24.847Z,69.30
2022-08-22T13:22:11.533Z,70.60
2022-08-22T13:24:52.487Z,70.70
2022-08-22T13:27:34.012Z,71.20
2022-08-22T13:30:07.213Z,72.30
2022-08-22T13:32:47.399Z,73.70
2022-08-22T13:35:23.947Z,75.20
2022-08-22T13:38:02.883Z,73.10
2022-08-22T13:40:35.043Z,70.00
2022-08-22T13:43:11.900Z,68.80
2022-08-22T13:45:41.764Z,67.90
2022-08-22T13:48:16.428Z,67.80
2022-08-22T13:51:08.061Z,69.90
2022-08-22T13:54:00.643Z,69.50
2022-08-22T13:57:02.733Z,71.20
2022-08-22T14:00:11.525Z,72.70
2022-08-22T14:03:09.551Z,72.90
2022-08-22T14:05:53.239Z,74.40
2022-08-22T14:08:25.755Z,75.50
2022-08-22T14:11:13.408Z,74.50
2022-08-22T14:13:55.401Z,74.70
2022-08-22T14:16:31.649Z,73.40
2022-08-22T14:19:06.120Z,74.30
2022-08-22T14:21:55.420Z,75.60
2022-08-22T14:24:45.623Z,75.90
2022-08-22T14:27:29.346Z,76.90
2022-08-22T14:30:01.358Z,75.00
2022-08-22T14:32:44.566Z,75.60
2022-08-22T14:35:35.271Z,75.40
2022-08-22T14:38:39.214Z,76.10
2022-08-22T14:41:52.710Z,74.60
2022-08-22T14:44:44.475Z,74.00
2022-08-22T14:47:55.553Z,74.10
2022-08-22T14:50:45.227Z,74.50
2022-08-22T14:53:22.275Z,74.90
2022-08-22T14:56:24.825Z,74.70
2022-08-22T14:58:58.435Z,74.50
2022-08-22T15:01:29.931Z,75.70
2022-08-22T15:04:02.477Z,75.90
2022-08-22T15:06:51.096Z,77.10
2022-08-22T15:09:42.001Z,75.10
2022-08-22T15:12:42.699Z,74.90
2022-08-22T15:15:41.127Z,74.10
2022-08-22T15:18:18.520Z,74.30
2022-08-22T15:20:52.137Z,73.30
2022-08-22T15:23:23.309Z,75.00
2022-08-22T15:26:13.302Z,72.50
2022-08-22T15:28:53.037Z,70.80
2022-08-22T15:31:21.102Z,72.40
2022-08-22T15:33:48.779Z,74.00
2022-08-22T15:36:22.569Z,74.50
2022-08-22T15:38:57.171Z,75.70
2022-08-22T15:41:36.990Z,76.20
2022-08-22T15:44:33.414Z,75.70
2022-08-22T15:47:31.566Z,75.90
2022-08-22T15:50:27.145Z,76.30
2022-08-22T15:53:14.931Z,76.80
2022-08-22T15:56:05.547Z,77.70
2022-08-22T15:58:37.899Z,78.90
2022-08-22T16:01:19.990Z,78.40
2022-08-22T16:04:06.089Z,78.50
2022-08-22T16:07:01.222Z,76.60
2022-08-22T16:09:48.129Z,77.60
2022-08-22T16:12:33.467Z,78.80
2022-08-22T16:15:05.245Z,79.10
2022-08-22T16:17:40.021Z,80.40
2022-08-22T16:20:19.222Z,80.90
2022-08-22T16:23:06.734Z,82.80
2022-08-22T16:25:45.408Z,83.80
2022-08-22T16:29:02.546Z,84.40
2022-08-22T16:31:39.688Z,84.70
2022-08-22T16:34:21.167Z,85.10
2022-08-22T16:37:19.538Z,85.10
2022-08-22T16:39:58.595Z,86.10
2022-08-22T16:42:27.473Z,86.10
2022-08-22T16:45:04.977Z,87.10
2022-08-22T16:47:41.474Z,86.80
2022-08-22T16:50:23.284Z,87.40
2022-08-22T16:52:57.684Z,87.70
2022-08-22T16:55:30.355Z,87.90
2022-08-22T16:58:21.306Z,88.20
2022-08-22T17:01:03.019Z,88.10
2022-08-22T17:03:32.489Z,88.80
2022-08-22T17:06:15.240Z,89.90
2022-08-22T17:09:19.821Z,89.30
2022-08-22T17:11:52.736Z,89.40
2022-08-22T17:14:42.455Z,88.70
2022-08-22T17:17:32.122Z,89.40
2022-08-22T17:20:21.228Z,90.00
2022-08-22T17:23:05.449Z,89.90
2022-08-22T17:25:48.344Z,90.30
2022-08-22T17:28:34.382Z,90.10
2022-08-22T17:31:17.066Z,90.10
2022-08-22T17:34:04.522Z,90.30
2022-08-22T17:36:31.409Z,90.30
2022-08-22T17:39:15.784Z,90.20
2022-08-22T17:41:59.707Z,90.10
2022-08-22T17:45:01.169Z,90.30
2022-08-22T17:47:45.623Z,90.70
2022-08-22T17:50:22.550Z,90.80
2022-08-22T17:53:16.217Z,90.60
2022-08-22T17:56:03.101Z,91.00
2022-08-22T17:58:46.289Z,91.00
2022-08-22T18:01:38.946Z,91.30
2022-08-22T18:04:12.343Z,91.10
2022-08-22T18:06:49.288Z,90.90
2022-08-22T18:09:37.937Z,91.00
2022-08-22T18:12:17.893Z,91.20
2022-08-22T18:14:52.383Z,91.30
2022-08-22T18:17:48.882Z,91.30
2022-08-22T18:20:39.358Z,91.50
2022-08-22T18:23:35.794Z,91.40
2022-08-22T18:26:31.179Z,91.70
2022-08-22T18:29:19.307Z,91.70
2022-08-22T18:32:07.213Z,91.90
2022-08-22T18:34:46.682Z,91.90
2022-08-22T18:37:35.778Z,92.00
2022-08-22T18:40:08.421Z,92.10
2022-08-22T18:42:57.684Z,92.10
2022-08-22T18:45:46.036Z,92.30
2022-08-22T18:48:28.714Z,92.40
2022-08-22T18:51:38.248Z,92.50
2022-08-22T18:54:05.409Z,92.70
2022-08-22T18:56:50.378Z,92.50
2022-08-22T18:59:26.713Z,92.70
2022-08-22T19:02:11.640Z,92.90
2022-08-22T19:04:53.355Z,93.30
2022-08-22T19:07:54.503Z,93.20
2022-08-22T19:10:31.720Z,93.60
2022-08-22T19:13:24.059Z,93.70
2022-08-22T19:16:06.117Z,94.10
2022-08-22T19:18:39.051Z,94.50
2022-08-22T19:21:49.149Z,94.40
2022-08-22T19:24:29.122Z,94.50
2022-08-22T19:27:12.290Z,94.50
2022-08-22T19:29:39.757Z,94.40
2022-08-22T19:32:12.726Z,94.30
2022-08-22T19:34:47.671Z,94.40
2022-08-22T19:37:31.043Z,94.30
2022-08-22T19:40:11.550Z,94.30
2022-08-22T19:42:41.401Z,94.50
2022-08-22T19:45:22.111Z,94.50
2022-08-22T19:48:13.226Z,94.50
2022-08-22T19:50:42.039Z,94.60
2022-08-22T19:53:33.671Z,94.50
2022-08-22T19:56:36.570Z,94.50
2022-08-22T19:59:36.734Z,94.70
2022-08-22T20:02:23.995Z,94.90
2022-08-22T20:05:28.778Z,94.80
2022-08-22T20:08:33.961Z,95.30
2022-08-22T20:11:37.709Z,95.30
2022-08-22T20:14:29.921Z,95.50
2022-08-22T20:17:25.473Z,95.40
2022-08-22T20:23:04.646Z,95.50
2022-08-22T20:25:50.138Z,95.70
2022-08-22T20:28:46.897Z,95.90
2022-08-22T20:31:22.958Z,95.90
2022-08-22T20:33:55.324Z,96.10
2022-08-22T20:36:27.604Z,96.10
2022-08-22T20:39:01.448Z,96.20
2022-08-22T20:41:36.960Z,96.40
2022-08-22T20:44:30.846Z,96.60
2022-08-22T20:47:06.621Z,96.70
2022-08-22T20:49:43.054Z,96.70
2022-08-22T20:52:21.353Z,96.60
2022-08-22T20:55:04.616Z,96.60
2022-08-22T20:57:33.393Z,96.70
2022-08-22T21:00:12.981Z,96.70
2022-08-22T21:02:55.202Z,96.90
2022-08-22T21:05:25.646Z,96.90
2022-08-22T21:08:16.272Z,97.00
2022-08-22T21:11:01.543Z,97.10
2022-08-22T21:13:36.531Z,97.10
2022-08-22T21:16:20.060Z,97.30
2022-08-22T21:18:52.667Z,97.40
2022-08-22T21:21:34.291Z,97.20
2022-08-22T21:24:07.005Z,97.40
2022-08-22T21:26:45.943Z,97.30
2022-08-22T21:29:12.553Z,97.50
2022-08-22T21:31:49.102Z,97.50
2022-08-22T21:34:32.463Z,97.60
2022-08-22T21:37:09.353Z,97.60
2022-08-22T21:39:41.916Z,97.60
2022-08-22T21:42:15.498Z,97.60
2022-08-22T21:44:54.219Z,97.70
2022-08-22T21:47:30.599Z,97.60
2022-08-22T21:50:23.168Z,97.60
2022-08-22T21:52:55.676Z,97.80
2022-08-22T21:55:28.311Z,97.70
2022-08-22T21:58:36.971Z,97.90
2022-08-22T22:01:23.185Z,98.20
2022-08-22T22:03:51.826Z,98.20
2022-08-22T22:06:18.550Z,98.30
2022-08-22T22:08:45.357Z,98.60
2022-08-22T22:11:14.374Z,98.80
2022-08-22T22:13:41.481Z,99.00
2022-08-22T22:16:11.942Z,99.10
2022-08-22T22:18:39.274Z,99.10
2022-08-22T22:21:06.306Z,99.20
2022-08-22T22:23:33.074Z,99.30
2022-08-22T22:26:02.420Z,99.40
2022-08-22T22:28:33.454Z,99.50
2022-08-22T22:31:00.421Z,99.60
2022-08-22T22:33:30.413Z,99.60
2022-08-22T22:36:03.069Z,99.70
2022-08-22T22:38:29.761Z,99.70
2022-08-22T22:40:56.668Z,99.80
2022-08-22T22:43:23.659Z,99.70
2022-08-22T22:45:50.426Z,99.90
2022-08-22T22:48:18.182Z,99.90
2022-08-22T22:50:54.756Z,99.90
2022-08-22T22:53:33.755Z,99.90
2022-08-22T22:56:06.798Z,99.90
2022-08-22T22:58:36.326Z,99.90
2022-08-22T23:01:11.486Z,99.90
2022-08-22T23:03:38.539Z,99.90
2022-08-22T23:06:20.348Z,99.90
2022-08-22T23:08:48.617Z,99.90
2022-08-22T23:11:20.982Z,99.90
2022-08-22T23:13:48.494Z,99.90
2022-08-22T23:16:19.289Z,99.90
2022-08-22T23:18:46.667Z,99.90
2022-08-22T23:21:16.438Z,99.90
2022-08-22T23:23:43.641Z,99.90
2022-08-22T23:26:11.193Z,99.90
2022-08-22T23:28:37.908Z,99.90
2022-08-22T23:31:11.603Z,99.90
2022-08-22T23:33:38.629Z,99.90
2022-08-22T23:36:32.193Z,99.90
2022-08-22T23:38:58.937Z,99.90
2022-08-22T23:41:26.577Z,99.90
2022-08-22T23:43:54.990Z,99.90
2022-08-22T23:46:24.119Z,99.90
2022-08-22T23:48:51.263Z,99.90
2022-08-22T23:51:22.994Z,99.90
2022-08-22T23:53:50.698Z,99.90
2022-08-22T23:56:19.533Z,99.90
2022-08-22T23:58:47.472Z,99.90
